createdAt,value
2023-01-19T00:01:01.295Z,37.10
2023-01-19T00:03:32.970Z,36.30
2023-01-19T00:06:32.816Z,36.13
2023-01-19T00:09:11.395Z,36.83
2023-01-19T00:11:58.812Z,35.83
2023-01-19T00:14:32.909Z,38.22
2023-01-19T00:17:00.161Z,36.17
2023-01-19T00:19:35.088Z,38.50
2023-01-19T00:22:10.838Z,38.40
2023-01-19T00:24:48.886Z,38.58
2023-01-19T00:27:25.005Z,39.03
2023-01-19T00:30:06.358Z,37.10
2023-01-19T00:32:35.739Z,36.90
2023-01-19T00:35:05.992Z,38.72
2023-01-19T00:37:46.899Z,39.63
2023-01-19T00:40:26.686Z,37.83
2023-01-19T00:43:05.624Z,37.33
2023-01-19T00:45:46.763Z,40.95
2023-01-19T00:51:09.505Z,38.83
2023-01-19T00:53:56.858Z,38.53
2023-01-19T00:56:45.737Z,38.60
2023-01-19T00:59:15.445Z,38.92
2023-01-19T01:01:49.776Z,41.05
2023-01-19T01:04:35.047Z,40.25
2023-01-19T01:07:10.865Z,39.65
2023-01-19T01:09:37.605Z,40.92
2023-01-19T01:12:04.559Z,40.90
2023-01-19T01:14:40.345Z,41.05
2023-01-19T01:17:11.671Z,41.15
2023-01-19T01:19:44.007Z,42.08
2023-01-19T01:22:10.763Z,40.70
2023-01-19T01:24:43.705Z,40.40
2023-01-19T01:30:05.588Z,40.97
2023-01-19T01:32:49.138Z,43.17
2023-01-19T01:35:29.013Z,42.25
2023-01-19T01:38:09.701Z,43.65
2023-01-19T01:40:43.102Z,43.30
2023-01-19T01:43:26.284Z,45.22
2023-01-19T01:46:20.232Z,42.38
2023-01-19T01:49:30.221Z,42.03
2023-01-19T01:52:02.608Z,45.08
2023-01-19T01:54:37.019Z,42.38
2023-01-19T01:57:12.386Z,42.78
2023-01-19T02:00:04.130Z,41.83
2023-01-19T02:03:04.597Z,42.28
2023-01-19T02:05:36.879Z,39.83
2023-01-19T02:08:48.563Z,37.30
2023-01-19T02:11:35.813Z,39.65
2023-01-19T02:14:13.525Z,46.30
2023-01-19T02:16:40.915Z,45.83
2023-01-19T02:19:19.668Z,44.50
2023-01-19T02:22:18.760Z,47.45
2023-01-19T02:24:45.709Z,48.78
2023-01-19T02:27:13.799Z,49.45
2023-01-19T02:29:52.144Z,48.97
2023-01-19T02:32:20.821Z,47.90
2023-01-19T02:34:48.924Z,46.50
2023-01-19T02:37:19.571Z,48.55
2023-01-19T02:39:56.951Z,46.08
2023-01-19T02:43:06.328Z,47.03
2023-01-19T02:48:35.741Z,45.85
2023-01-19T02:51:24.631Z,44.83
2023-01-19T02:54:23.148Z,47.05
2023-01-19T02:57:30.485Z,45.92
2023-01-19T03:00:42.279Z,44.25
2023-01-19T03:03:31.347Z,43.25
2023-01-19T03:06:51.172Z,44.65
2023-01-19T03:09:32.463Z,43.72
2023-01-19T03:12:22.129Z,40.78
2023-01-19T03:14:50.686Z,42.63
2023-01-19T03:17:19.097Z,46.25
2023-01-19T03:19:53.080Z,46.13
2023-01-19T03:22:29.225Z,43.28
2023-01-19T03:25:03.038Z,45.75
2023-01-19T03:27:47.088Z,45.22
2023-01-19T03:30:24.299Z,43.78
2023-01-19T03:33:03.471Z,43.13
2023-01-19T03:35:43.027Z,41.40
2023-01-19T03:38:15.910Z,40.80
2023-01-19T03:40:51.744Z,43.08
2023-01-19T03:43:28.776Z,41.75
2023-01-19T03:46:00.057Z,42.17
2023-01-19T03:51:14.522Z,44.10
2023-01-19T03:54:03.539Z,43.53
2023-01-19T03:56:59.673Z,42.38
2023-01-19T03:59:31.984Z,39.65
2023-01-19T04:02:05.857Z,45.17
2023-01-19T04:04:35.485Z,43.20
2023-01-19T04:07:05.099Z,44.17
2023-01-19T04:09:39.276Z,44.03
2023-01-19T04:12:20.024Z,43.53
2023-01-19T04:17:33.958Z,42.97
2023-01-19T04:20:03.839Z,43.78
2023-01-19T04:22:36.159Z,39.03
2023-01-19T04:25:07.368Z,42.72
2023-01-19T04:27:49.319Z,43.67
2023-01-19T04:30:19.215Z,42.10
2023-01-19T04:32:46.026Z,42.80
2023-01-19T04:35:23.383Z,41.63
2023-01-19T04:37:59.526Z,43.90
2023-01-19T04:40:36.923Z,41.90
2023-01-19T04:43:06.089Z,43.03
2023-01-19T04:45:33.339Z,42.97
2023-01-19T04:48:04.395Z,41.38
2023-01-19T04:50:33.191Z,43.65
2023-01-19T04:53:00.922Z,43.63
2023-01-19T04:55:28.240Z,41.00
2023-01-19T04:57:58.137Z,43.05
2023-01-19T05:00:24.772Z,42.28
2023-01-19T05:03:17.893Z,42.63
2023-01-19T05:05:52.833Z,42.58
2023-01-19T05:08:39.878Z,42.58
2023-01-19T05:11:16.838Z,41.40
2023-01-19T05:13:45.509Z,38.58
2023-01-19T05:16:23.620Z,39.95
2023-01-19T05:18:50.435Z,39.67
2023-01-19T05:21:17.029Z,37.28
2023-01-19T05:23:46.502Z,35.67
2023-01-19T05:26:14.984Z,36.20
2023-01-19T05:28:41.710Z,43.47
2023-01-19T05:31:08.481Z,43.17
2023-01-19T05:33:35.104Z,41.90
2023-01-19T05:36:02.324Z,42.53
2023-01-19T05:38:40.579Z,41.80
2023-01-19T05:41:10.892Z,42.30
2023-01-19T05:43:37.493Z,40.13
2023-01-19T05:46:05.309Z,41.78
2023-01-19T05:48:34.966Z,42.58
2023-01-19T05:51:04.136Z,40.58
2023-01-19T05:53:31.158Z,41.92
2023-01-19T05:56:10.647Z,42.35
2023-01-19T06:01:26.437Z,42.55
2023-01-19T06:03:53.082Z,42.50
2023-01-19T06:06:27.064Z,43.03
2023-01-19T06:08:57.030Z,44.40
2023-01-19T06:11:24.073Z,42.20
2023-01-19T06:14:00.123Z,43.55
2023-01-19T06:16:28.123Z,42.33
2023-01-19T06:18:58.619Z,42.03
2023-01-19T06:21:33.056Z,42.55
2023-01-19T06:24:06.344Z,43.92
2023-01-19T06:26:32.916Z,38.65
2023-01-19T06:29:01.003Z,43.47
2023-01-19T06:34:13.557Z,43.22
2023-01-19T06:36:51.277Z,43.58
2023-01-19T06:39:26.565Z,43.10
2023-01-19T06:41:56.029Z,42.33
2023-01-19T06:44:25.736Z,43.33
2023-01-19T06:49:42.104Z,40.42
2023-01-19T06:52:20.084Z,41.78
2023-01-19T06:54:46.984Z,40.95
2023-01-19T06:57:14.886Z,41.25
2023-01-19T06:59:42.191Z,42.38
2023-01-19T07:02:26.441Z,43.03
2023-01-19T07:05:01.868Z,42.08
2023-01-19T07:07:32.804Z,41.72
2023-01-19T07:09:59.674Z,41.50
2023-01-19T07:12:34.353Z,42.25
2023-01-19T07:15:22.696Z,42.38
2023-01-19T07:18:05.729Z,45.03
2023-01-19T07:20:34.345Z,41.85
2023-01-19T07:23:01.554Z,42.58
2023-01-19T07:25:29.310Z,43.88
2023-01-19T07:28:02.897Z,42.80
2023-01-19T07:30:38.262Z,41.20
2023-01-19T07:33:05.147Z,41.80
2023-01-19T07:35:43.601Z,43.67
2023-01-19T07:38:22.019Z,43.42
2023-01-19T07:40:59.653Z,41.92
2023-01-19T07:43:27.327Z,42.13
2023-01-19T07:46:04.652Z,40.53
2023-01-19T07:48:31.514Z,45.22
2023-01-19T07:51:05.732Z,44.15
2023-01-19T07:53:34.158Z,41.45
2023-01-19T07:56:09.008Z,42.90
2023-01-19T07:58:40.156Z,45.67
2023-01-19T08:01:12.191Z,44.33
2023-01-19T08:06:09.464Z,42.72
2023-01-19T08:08:40.764Z,46.92
2023-01-19T08:11:18.046Z,45.22
2023-01-19T08:13:58.150Z,48.75
2023-01-19T08:16:24.947Z,46.90
2023-01-19T08:18:52.688Z,48.00
2023-01-19T08:21:30.312Z,47.90
2023-01-19T08:24:03.349Z,49.35
2023-01-19T08:26:32.937Z,49.97
2023-01-19T08:29:05.769Z,49.35
2023-01-19T08:31:32.790Z,47.55
2023-01-19T08:33:59.519Z,45.05
2023-01-19T08:36:32.603Z,45.58
2023-01-19T08:39:01.741Z,44.45
2023-01-19T08:41:28.476Z,41.63
2023-01-19T08:43:58.430Z,41.90
2023-01-19T08:46:25.479Z,43.47
2023-01-19T08:48:52.564Z,44.42
2023-01-19T08:51:31.402Z,44.72
2023-01-19T08:54:01.169Z,44.22
2023-01-19T08:59:26.080Z,47.05
2023-01-19T09:01:52.718Z,47.40
2023-01-19T09:04:21.103Z,44.78
2023-01-19T09:06:48.969Z,43.03
2023-01-19T09:09:15.715Z,41.90
2023-01-19T09:11:48.254Z,42.97
2023-01-19T09:14:14.962Z,42.80
2023-01-19T09:16:50.228Z,44.55
2023-01-19T09:19:18.909Z,43.83
2023-01-19T09:21:45.547Z,43.58
2023-01-19T09:24:13.669Z,44.38
2023-01-19T09:26:43.160Z,42.72
2023-01-19T09:29:09.841Z,44.92
2023-01-19T09:31:37.470Z,40.78
2023-01-19T09:34:04.104Z,39.10
2023-01-19T09:36:31.087Z,43.17
2023-01-19T09:39:01.581Z,42.42
2023-01-19T09:41:29.371Z,41.85
2023-01-19T09:44:03.778Z,40.25
2023-01-19T09:47:02.379Z,41.78
2023-01-19T09:49:54.532Z,39.67
2023-01-19T09:52:24.905Z,38.92
2023-01-19T09:55:06.491Z,44.72
2023-01-19T09:57:38.997Z,44.35
2023-01-19T10:00:25.684Z,41.53
2023-01-19T10:03:09.559Z,42.30
2023-01-19T10:05:50.787Z,40.50
2023-01-19T10:08:36.732Z,40.78
2023-01-19T10:11:10.224Z,40.15
2023-01-19T10:13:50.135Z,40.13
2023-01-19T10:16:42.232Z,35.00
2023-01-19T10:19:49.377Z,35.03
2023-01-19T10:22:28.732Z,33.38
2023-01-19T10:25:09.263Z,35.20
2023-01-19T10:27:38.205Z,36.33
2023-01-19T10:30:16.818Z,35.42
2023-01-19T10:32:50.113Z,32.92
2023-01-19T10:35:36.811Z,35.03
2023-01-19T10:38:08.860Z,32.88
2023-01-19T10:40:50.251Z,33.70
2023-01-19T10:43:35.301Z,30.47
2023-01-19T10:46:31.322Z,31.42
2023-01-19T10:48:58.585Z,32.20
2023-01-19T10:51:38.128Z,34.13
2023-01-19T10:54:28.845Z,33.85
2023-01-19T10:57:05.458Z,33.40
2023-01-19T11:00:09.494Z,32.72
2023-01-19T11:02:40.395Z,31.27
2023-01-19T11:05:28.336Z,33.03
2023-01-19T11:08:04.183Z,33.50
2023-01-19T11:10:35.000Z,35.65
2023-01-19T11:13:13.362Z,33.28
2023-01-19T11:15:58.074Z,33.97
2023-01-19T11:18:38.439Z,32.05
2023-01-19T11:21:30.671Z,32.03
2023-01-19T11:24:22.797Z,31.65
2023-01-19T11:27:03.008Z,33.40
2023-01-19T11:30:18.339Z,32.33
2023-01-19T11:32:46.271Z,32.45
2023-01-19T11:35:52.551Z,30.92
2023-01-19T11:38:31.992Z,30.13
2023-01-19T11:41:04.203Z,30.38
2023-01-19T11:46:19.702Z,29.55
2023-01-19T11:49:02.350Z,32.28
2023-01-19T11:51:49.459Z,30.38
2023-01-19T11:54:30.535Z,30.27
2023-01-19T11:57:21.821Z,34.35
2023-01-19T11:59:51.210Z,36.83
2023-01-19T12:02:29.447Z,32.75
2023-01-19T12:05:13.521Z,33.78
2023-01-19T12:07:48.457Z,32.22
2023-01-19T12:10:28.320Z,32.10
2023-01-19T12:13:02.663Z,31.52
2023-01-19T12:15:46.911Z,31.98
2023-01-19T12:18:34.959Z,28.83
2023-01-19T12:21:06.449Z,29.23
2023-01-19T12:23:52.309Z,28.85
2023-01-19T12:26:24.832Z,28.75
2023-01-19T12:29:08.894Z,29.95
2023-01-19T12:31:51.861Z,28.67
2023-01-19T12:34:41.314Z,27.08
2023-01-19T12:37:32.226Z,27.25
2023-01-19T12:40:28.058Z,27.98
2023-01-19T12:43:05.687Z,29.08
2023-01-19T12:45:41.849Z,26.20
2023-01-19T12:48:33.018Z,27.58
2023-01-19T12:50:59.823Z,29.23
2023-01-19T12:53:36.971Z,29.08
2023-01-19T12:56:16.028Z,27.85
2023-01-19T12:58:52.456Z,29.05
2023-01-19T13:01:21.638Z,28.55
2023-01-19T13:04:29.391Z,27.85
2023-01-19T13:07:08.526Z,28.25
2023-01-19T13:09:39.357Z,27.02
2023-01-19T13:12:21.817Z,26.65
2023-01-19T13:15:38.046Z,29.10
2023-01-19T13:18:05.013Z,24.77
2023-01-19T13:20:47.023Z,28.50
2023-01-19T13:23:29.061Z,28.48
2023-01-19T13:26:05.807Z,27.42
2023-01-19T13:28:43.687Z,27.15
2023-01-19T13:31:15.884Z,29.02
2023-01-19T13:36:41.093Z,25.63
2023-01-19T13:39:24.839Z,28.23
2023-01-19T13:42:05.065Z,27.13
2023-01-19T13:44:55.746Z,27.58
2023-01-19T13:47:36.992Z,27.15
2023-01-19T13:50:09.829Z,26.40
2023-01-19T13:52:43.968Z,26.85
2023-01-19T13:55:20.749Z,28.67
2023-01-19T13:57:54.784Z,27.15
2023-01-19T14:00:33.842Z,26.23
2023-01-19T14:03:03.118Z,26.55
2023-01-19T14:05:35.670Z,27.02
2023-01-19T14:11:36.085Z,25.88
2023-01-19T14:17:56.964Z,26.50
2023-01-19T14:20:33.425Z,25.88
2023-01-19T14:23:21.633Z,26.35
2023-01-19T14:25:49.085Z,23.48
2023-01-19T14:28:46.197Z,25.42
2023-01-19T14:31:30.439Z,22.98
2023-01-19T14:37:05.637Z,25.73
2023-01-19T14:39:46.630Z,24.20
2023-01-19T14:42:42.121Z,24.52
2023-01-19T14:46:06.671Z,26.95
2023-01-19T14:48:50.550Z,25.55
2023-01-19T14:51:29.667Z,28.17
2023-01-19T14:54:02.959Z,27.58
2023-01-19T14:56:56.696Z,26.70
2023-01-19T14:59:23.790Z,27.13
2023-01-19T15:01:53.441Z,27.30
2023-01-19T15:04:20.071Z,27.00
2023-01-19T15:06:47.368Z,29.15
2023-01-19T15:09:15.502Z,29.38
2023-01-19T15:11:59.315Z,29.73
2023-01-19T15:14:29.665Z,29.15
2023-01-19T15:17:07.303Z,27.17
2023-01-19T15:19:55.416Z,28.23
2023-01-19T15:22:38.683Z,28.85
2023-01-19T15:25:06.333Z,27.83
2023-01-19T15:27:33.029Z,26.65
2023-01-19T15:30:02.637Z,29.95
2023-01-19T15:32:48.776Z,28.13
2023-01-19T15:35:32.146Z,26.20
2023-01-19T15:38:09.908Z,25.67
2023-01-19T15:40:37.020Z,25.50
2023-01-19T15:43:16.448Z,26.67
2023-01-19T15:46:02.414Z,25.40
2023-01-19T15:48:30.546Z,25.80
2023-01-19T15:51:03.957Z,24.45
2023-01-19T15:53:32.187Z,23.73
2023-01-19T15:56:02.846Z,24.75
2023-01-19T15:58:30.003Z,25.27
2023-01-19T16:00:58.825Z,24.50
2023-01-19T16:03:26.153Z,23.70
2023-01-19T16:05:56.171Z,24.25
2023-01-19T16:08:26.278Z,23.73
2023-01-19T16:10:53.231Z,22.95
2023-01-19T16:13:29.595Z,24.42
2023-01-19T16:15:56.160Z,21.67
2023-01-19T16:18:24.138Z,21.17
2023-01-19T16:20:50.844Z,20.00
2023-01-19T16:23:17.541Z,21.48
2023-01-19T16:25:54.898Z,21.25
2023-01-19T16:28:21.509Z,21.08
2023-01-19T16:31:02.047Z,20.85
2023-01-19T16:33:29.012Z,18.73
2023-01-19T16:35:56.165Z,18.80
2023-01-19T16:38:25.968Z,17.30
2023-01-19T16:40:59.089Z,16.58
2023-01-19T16:43:32.063Z,17.35
2023-01-19T16:46:02.863Z,16.17
2023-01-19T16:48:32.321Z,17.30
2023-01-19T16:51:16.519Z,16.55
2023-01-19T16:53:54.770Z,16.98
2023-01-19T16:56:27.921Z,18.13
2023-01-19T16:59:01.146Z,17.70
2023-01-19T17:01:35.513Z,15.95
2023-01-19T17:04:12.290Z,15.88
2023-01-19T17:09:30.996Z,14.97
2023-01-19T17:12:27.934Z,15.10
2023-01-19T17:15:01.446Z,14.82
2023-01-19T17:17:31.428Z,13.30
2023-01-19T17:20:07.488Z,13.17
2023-01-19T17:23:05.244Z,12.37
2023-01-19T17:25:34.901Z,11.07
2023-01-19T17:28:01.564Z,11.03
2023-01-19T17:30:37.387Z,11.90
2023-01-19T17:33:04.066Z,12.73
2023-01-19T17:35:32.537Z,11.60
2023-01-19T17:38:07.983Z,11.27
2023-01-19T17:40:35.949Z,12.27
2023-01-19T17:43:04.335Z,10.60
2023-01-19T17:48:14.148Z,12.10
2023-01-19T17:50:40.883Z,11.10
2023-01-19T17:53:08.421Z,11.17
2023-01-19T17:55:38.150Z,10.13
2023-01-19T17:58:07.274Z,11.07
2023-01-19T18:00:36.458Z,10.07
2023-01-19T18:03:03.164Z,11.93
2023-01-19T18:05:30.096Z,10.63
2023-01-19T18:08:03.035Z,11.73
2023-01-19T18:10:29.828Z,10.47
2023-01-19T18:12:56.615Z,11.87
2023-01-19T18:15:23.268Z,11.43
2023-01-19T18:18:06.182Z,10.87
2023-01-19T18:20:32.862Z,10.90
2023-01-19T18:22:59.553Z,12.27
2023-01-19T18:25:28.424Z,11.00
2023-01-19T18:28:05.442Z,10.00
2023-01-19T18:30:34.956Z,10.43
2023-01-19T18:33:01.612Z,9.87
2023-01-19T18:35:28.920Z,11.13
2023-01-19T18:37:59.203Z,11.10
2023-01-19T18:40:25.916Z,11.50
2023-01-19T18:43:01.325Z,10.37
2023-01-19T18:45:40.630Z,11.93
2023-01-19T18:48:12.721Z,12.80
2023-01-19T18:50:45.459Z,13.77
2023-01-19T18:53:18.091Z,11.87
2023-01-19T18:55:59.737Z,13.03
2023-01-19T18:58:29.713Z,12.33
2023-01-19T19:00:57.412Z,12.17
2023-01-19T19:03:27.482Z,12.67
2023-01-19T19:05:57.363Z,13.77
2023-01-19T19:08:24.060Z,12.57
2023-01-19T19:10:50.831Z,12.70
2023-01-19T19:13:17.955Z,13.00
2023-01-19T19:15:44.660Z,12.87
2023-01-19T19:18:14.690Z,12.60
2023-01-19T19:20:44.492Z,13.00
2023-01-19T19:23:12.109Z,14.80
2023-01-19T19:25:38.974Z,14.30
2023-01-19T19:28:09.540Z,13.30
2023-01-19T19:30:39.512Z,14.57
2023-01-19T19:33:06.164Z,13.77
2023-01-19T19:35:32.732Z,14.30
2023-01-19T19:38:02.321Z,14.23
2023-01-19T19:40:29.276Z,13.20
2023-01-19T19:43:01.728Z,14.73
2023-01-19T19:45:37.527Z,12.70
2023-01-19T19:48:04.426Z,14.03
2023-01-19T19:50:34.642Z,13.93
2023-01-19T19:53:19.937Z,14.37
2023-01-19T19:56:03.636Z,14.57
2023-01-19T19:58:31.453Z,15.80
2023-01-19T20:00:58.158Z,14.33
2023-01-19T20:06:13.432Z,15.43
2023-01-19T20:08:40.772Z,15.80
2023-01-19T20:11:12.550Z,17.07
2023-01-19T20:13:44.042Z,16.88
2023-01-19T20:16:14.114Z,17.20
2023-01-19T20:18:42.995Z,16.87
2023-01-19T20:21:15.763Z,17.93
2023-01-19T20:23:43.657Z,18.20
2023-01-19T20:26:14.313Z,17.40
2023-01-19T20:28:41.475Z,16.17
2023-01-19T20:31:29.228Z,16.63
2023-01-19T20:33:57.805Z,16.10
2023-01-19T20:36:30.839Z,19.20
2023-01-19T20:38:59.142Z,17.30
2023-01-19T20:41:27.829Z,16.93
2023-01-19T20:43:55.182Z,18.17
2023-01-19T20:46:22.080Z,17.60
2023-01-19T20:48:53.811Z,18.57
2023-01-19T20:51:20.890Z,17.55
2023-01-19T20:53:50.337Z,18.47
2023-01-19T20:56:17.102Z,18.33
2023-01-19T20:58:43.911Z,19.50
2023-01-19T21:01:26.797Z,19.57
2023-01-19T21:03:54.111Z,18.50
2023-01-19T21:06:31.957Z,19.23
2023-01-19T21:09:11.623Z,18.63
2023-01-19T21:11:38.907Z,19.30
2023-01-19T21:14:06.859Z,18.57
2023-01-19T21:16:40.490Z,20.43
2023-01-19T21:19:07.210Z,20.90
2023-01-19T21:21:34.087Z,21.07
2023-01-19T21:24:04.482Z,20.20
2023-01-19T21:26:33.310Z,23.47
2023-01-19T21:29:02.347Z,21.90
2023-01-19T21:31:29.887Z,22.67
2023-01-19T21:34:02.731Z,22.77
2023-01-19T21:36:29.803Z,22.53
2023-01-19T21:39:00.729Z,22.43
2023-01-19T21:41:30.243Z,24.70
2023-01-19T21:43:58.572Z,25.10
2023-01-19T21:46:33.362Z,21.90
2023-01-19T21:49:05.067Z,21.87
2023-01-19T21:51:37.434Z,21.38
2023-01-19T21:54:05.751Z,22.13
2023-01-19T21:56:36.428Z,21.73
2023-01-19T21:59:10.731Z,20.50
2023-01-19T22:01:37.665Z,20.60
2023-01-19T22:04:04.468Z,20.20
2023-01-19T22:06:34.472Z,22.00
2023-01-19T22:09:07.054Z,20.33
2023-01-19T22:11:39.621Z,22.50
2023-01-19T22:14:09.218Z,21.20
2023-01-19T22:16:39.336Z,22.43
2023-01-19T22:19:08.207Z,21.27
2023-01-19T22:21:38.292Z,20.67
2023-01-19T22:24:15.001Z,21.37
2023-01-19T22:26:41.872Z,21.67
2023-01-19T22:29:12.113Z,22.00
2023-01-19T22:31:39.970Z,21.50
2023-01-19T22:34:19.960Z,22.27
2023-01-19T22:39:36.178Z,22.53
2023-01-19T22:42:18.410Z,22.00
2023-01-19T22:47:12.893Z,20.17
2023-01-19T22:49:40.785Z,20.70
2023-01-19T22:52:07.367Z,20.17
2023-01-19T22:54:40.511Z,18.87
2023-01-19T22:57:13.228Z,20.83
2023-01-19T22:59:41.069Z,21.33
2023-01-19T23:02:13.050Z,20.37
2023-01-19T23:04:39.815Z,20.85
2023-01-19T23:07:09.880Z,20.63
2023-01-19T23:09:38.072Z,22.03
2023-01-19T23:12:05.149Z,21.40
2023-01-19T23:14:31.962Z,19.33
2023-01-19T23:17:01.243Z,21.67
2023-01-19T23:19:48.529Z,19.10
2023-01-19T23:22:17.147Z,20.03
2023-01-19T23:24:43.700Z,20.77
2023-01-19T23:27:11.925Z,20.17
2023-01-19T23:29:44.585Z,19.63
2023-01-19T23:32:15.292Z,19.83
2023-01-19T23:34:49.087Z,21.30
2023-01-19T23:37:24.473Z,19.83
2023-01-19T23:39:58.183Z,19.20
2023-01-19T23:42:27.811Z,20.20
2023-01-19T23:44:57.739Z,18.77
2023-01-19T23:47:49.236Z,21.97
2023-01-19T23:50:18.996Z,21.53
2023-01-19T23:52:45.581Z,20.50
2023-01-19T23:55:13.660Z,18.83
2023-01-19T23:57:40.425Z,20.20
